Time;durP1;ratioP1;P1;durP2;ratioP2;P2;SDS_P1;SDS_P2;PMS_P1;PMS_P2;Temp;Humidity;BMP_temperature;BMP_pressure;BME280_temperature;BME280_humidity;BME280_pressure;Samples;Min_cycle;Max_cycle;Signal;HPM_P1;HPM_P2
2022/07/25 00:01:41;;;;;;;12.67;10.70;;;22.50;99.90;;;;;;4985075;28;20082;-74
2022/07/25 00:04:07;;;;;;;13.60;11.50;;;22.50;99.90;;;;;;4985904;28;20038;-74
2022/07/25 00:06:34;;;;;;;14.38;11.13;;;22.50;99.90;;;;;;4996404;28;20034;-74
2022/07/25 00:09:00;;;;;;;12.25;10.68;;;22.50;99.90;;;;;;5004516;28;20030;-75
2022/07/25 00:11:26;;;;;;;12.65;11.20;;;22.50;99.90;;;;;;4988027;28;20236;-75
2022/07/25 00:13:52;;;;;;;11.80;10.53;;;22.50;99.90;;;;;;5004076;28;20030;-75
2022/07/25 00:16:18;;;;;;;14.27;11.67;;;22.50;99.90;;;;;;4985084;28;20015;-75
2022/07/25 00:18:43;;;;;;;12.68;10.85;;;22.50;99.90;;;;;;4984867;28;20022;-75
2022/07/25 00:21:09;;;;;;;12.27;10.70;;;22.40;99.90;;;;;;4985746;28;20026;-74
2022/07/25 00:23:35;;;;;;;14.70;11.73;;;22.30;99.90;;;;;;4984357;28;20368;-75
2022/07/25 00:26:00;;;;;;;15.00;12.00;;;22.30;99.90;;;;;;4984552;28;20089;-75
2022/07/25 00:28:26;;;;;;;14.63;11.53;;;22.20;99.90;;;;;;4984645;28;20038;-75
2022/07/25 00:30:52;;;;;;;14.27;10.23;;;22.20;99.90;;;;;;4984304;28;20026;-75
2022/07/25 00:33:18;;;;;;;13.05;11.13;;;22.10;99.90;;;;;;4985391;28;20030;-75
2022/07/25 00:35:44;;;;;;;18.77;11.77;;;22.10;99.90;;;;;;4984058;28;20019;-76
2022/07/25 00:38:09;;;;;;;15.20;10.77;;;22.00;99.90;;;;;;4984107;28;20022;-76
2022/07/25 00:40:35;;;;;;;12.40;11.10;;;22.00;99.90;;;;;;5000262;28;20023;-76
2022/07/25 00:43:01;;;;;;;12.67;10.97;;;22.00;99.90;;;;;;5003639;28;20022;-76
2022/07/25 00:45:27;;;;;;;11.93;10.47;;;22.00;99.90;;;;;;4991250;28;20025;-76
2022/07/25 00:47:52;;;;;;;12.37;10.53;;;22.00;99.90;;;;;;4984343;28;20023;-76
2022/07/25 00:50:18;;;;;;;14.63;10.97;;;22.00;99.90;;;;;;4984051;28;20090;-75
2022/07/25 00:52:44;;;;;;;14.47;11.03;;;21.90;99.90;;;;;;4984016;28;20022;-76
2022/07/25 00:55:11;;;;;;;14.02;11.52;;;21.90;99.90;;;;;;4983984;28;20282;-75
2022/07/25 00:57:37;;;;;;;13.10;10.70;;;21.80;99.90;;;;;;4984073;28;20329;-75
2022/07/25 01:00:06;;;;;;;15.23;11.47;;;21.80;99.90;;;;;;4983849;28;20022;-75
2022/07/25 01:02:32;;;;;;;12.43;11.00;;;21.80;99.90;;;;;;4983948;28;20022;-75
2022/07/25 01:04:58;;;;;;;14.98;11.27;;;21.90;99.90;;;;;;4984733;28;20041;-75
2022/07/25 01:07:24;;;;;;;14.17;11.30;;;21.90;99.90;;;;;;4983970;28;20054;-75
2022/07/25 01:09:50;;;;;;;14.20;11.07;;;21.90;99.90;;;;;;4983210;28;20022;-75
2022/07/25 01:12:16;;;;;;;13.07;11.60;;;21.80;99.90;;;;;;4983598;28;20034;-75
2022/07/25 01:14:41;;;;;;;14.07;11.43;;;21.80;99.90;;;;;;5004058;28;20036;-75
2022/07/25 01:17:07;;;;;;;14.20;11.40;;;21.80;99.90;;;;;;4986978;28;20027;-75
2022/07/25 01:19:33;;;;;;;14.37;11.73;;;21.80;99.90;;;;;;5003077;28;20026;-74
2022/07/25 01:21:59;;;;;;;15.30;11.53;;;21.70;99.90;;;;;;5003029;28;20224;-74
2022/07/25 01:24:25;;;;;;;13.93;11.03;;;21.60;99.90;;;;;;5002644;28;20054;-75
2022/07/25 01:26:50;;;;;;;13.93;11.33;;;21.50;99.90;;;;;;5003926;28;20296;-74
2022/07/25 01:29:16;;;;;;;14.47;11.63;;;21.50;99.90;;;;;;5002912;28;20041;-75
2022/07/25 01:31:42;;;;;;;13.90;11.63;;;21.50;99.90;;;;;;5003942;28;20077;-74
2022/07/25 01:34:08;;;;;;;14.20;11.83;;;21.50;99.90;;;;;;5003637;28;20041;-75
2022/07/25 01:36:33;;;;;;;14.90;11.60;;;21.50;99.90;;;;;;5003807;28;20278;-75
2022/07/25 01:38:59;;;;;;;12.57;10.73;;;21.60;99.90;;;;;;5003755;28;20050;-75
2022/07/25 01:41:25;;;;;;;13.93;11.53;;;21.60;99.90;;;;;;4989525;28;20018;-75
2022/07/25 01:43:51;;;;;;;12.90;10.97;;;21.60;99.90;;;;;;4984095;28;20026;-75
2022/07/25 01:46:16;;;;;;;14.13;11.13;;;21.60;99.90;;;;;;4983247;28;20030;-75
2022/07/25 01:48:42;;;;;;;13.10;11.20;;;21.70;99.90;;;;;;4984318;28;20032;-75
2022/07/25 01:51:09;;;;;;;13.30;11.37;;;21.70;99.90;;;;;;4983790;28;20042;-75
2022/07/25 01:53:35;;;;;;;13.38;10.85;;;21.60;99.90;;;;;;4982993;28;20034;-75
2022/07/25 01:56:01;;;;;;;13.95;11.38;;;21.60;99.90;;;;;;4983156;28;20183;-75
2022/07/25 01:58:27;;;;;;;15.43;11.40;;;21.60;99.90;;;;;;4983401;28;20030;-75
2022/07/25 02:00:52;;;;;;;14.17;10.63;;;21.60;99.90;;;;;;4983261;28;20033;-75
2022/07/25 02:03:30;;;;;;;11.10;9.90;;;21.60;99.90;;;;;;4983085;28;20026;-75
2022/07/25 02:06:04;;;;;;;15.23;10.43;;;21.60;99.90;;;;;;4983260;28;20018;-75
2022/07/25 02:08:30;;;;;;;13.77;11.95;;;21.60;99.90;;;;;;4966230;28;20026;-75
2022/07/25 02:10:56;;;;;;;13.77;10.80;;;21.60;99.90;;;;;;4981974;28;20018;-75
2022/07/25 02:13:21;;;;;;;13.23;11.03;;;21.60;99.90;;;;;;4981798;28;20023;-75
2022/07/25 02:15:47;;;;;;;15.82;10.50;;;21.50;99.90;;;;;;4983144;28;20416;-75
2022/07/25 02:18:13;;;;;;;13.80;12.27;;;21.50;99.90;;;;;;4982032;28;20027;-75
2022/07/25 02:20:39;;;;;;;13.57;11.20;;;21.50;99.90;;;;;;4982922;28;20573;-75
2022/07/25 02:23:05;;;;;;;12.70;10.67;;;21.50;99.90;;;;;;4982794;28;20023;-75
2022/07/25 02:25:31;;;;;;;14.50;10.83;;;21.50;99.90;;;;;;4982016;28;20042;-75
2022/07/25 02:27:56;;;;;;;14.23;10.95;;;21.50;99.90;;;;;;4981657;28;20018;-75
2022/07/25 02:30:22;;;;;;;13.73;11.32;;;21.50;99.90;;;;;;4981888;28;20030;-76
2022/07/25 02:32:48;;;;;;;13.47;11.50;;;21.40;99.90;;;;;;4982731;28;20109;-75
2022/07/25 02:35:14;;;;;;;13.83;11.37;;;21.40;99.90;;;;;;4981721;28;20090;-75
2022/07/25 02:37:40;;;;;;;13.77;11.50;;;21.40;99.90;;;;;;4981859;28;20441;-75
2022/07/25 02:40:06;;;;;;;14.98;11.43;;;21.40;99.90;;;;;;4981793;28;20023;-75
2022/07/25 02:42:32;;;;;;;16.23;12.10;;;21.30;99.90;;;;;;4982178;28;20027;-75
2022/07/25 02:44:58;;;;;;;15.67;12.40;;;21.20;99.90;;;;;;4982179;28;20128;-75
2022/07/25 02:47:23;;;;;;;13.80;11.93;;;21.20;99.90;;;;;;4982749;28;20258;-74
2022/07/25 02:49:49;;;;;;;17.87;11.60;;;21.20;99.90;;;;;;4982694;28;20341;-75
2022/07/25 02:52:15;;;;;;;14.87;12.10;;;21.20;99.90;;;;;;4946299;28;1082486;-75
2022/07/25 02:54:41;;;;;;;13.37;11.57;;;21.20;99.90;;;;;;4983228;28;20031;-74
2022/07/25 02:57:07;;;;;;;14.80;12.55;;;21.10;99.90;;;;;;4982219;28;20031;-75
2022/07/25 02:59:32;;;;;;;15.90;11.97;;;21.10;99.90;;;;;;4984334;28;20042;-75
2022/07/25 03:01:58;;;;;;;16.87;13.23;;;21.10;99.90;;;;;;4987451;28;20022;-75
2022/07/25 03:04:24;;;;;;;20.43;14.00;;;21.10;99.90;;;;;;4985957;28;20029;-75
2022/07/25 03:06:50;;;;;;;16.23;13.37;;;21.10;99.90;;;;;;4987191;28;20311;-75
2022/07/25 03:09:15;;;;;;;17.30;13.67;;;21.00;99.90;;;;;;4987163;28;20033;-75
2022/07/25 03:11:41;;;;;;;13.93;12.43;;;21.00;99.90;;;;;;4986833;28;20225;-75
2022/07/25 03:14:07;;;;;;;18.07;12.13;;;21.00;99.90;;;;;;4986227;28;20331;-74
2022/07/25 03:16:33;;;;;;;14.98;12.20;;;21.00;99.90;;;;;;4985999;28;20025;-75
2022/07/25 03:18:59;;;;;;;15.67;13.30;;;20.90;99.90;;;;;;4987032;28;20023;-75
2022/07/25 03:21:24;;;;;;;17.07;13.27;;;20.90;99.90;;;;;;4986825;28;20023;-74
2022/07/25 03:23:50;;;;;;;15.17;12.70;;;20.90;99.90;;;;;;4986697;28;20083;-75
2022/07/25 03:26:16;;;;;;;18.00;12.80;;;20.90;99.90;;;;;;4985610;28;20026;-75
2022/07/25 03:28:42;;;;;;;14.23;12.20;;;20.90;99.90;;;;;;4986876;28;20090;-75
2022/07/25 03:31:07;;;;;;;17.50;13.97;;;20.90;99.90;;;;;;4985668;28;20031;-75
2022/07/25 03:33:33;;;;;;;16.97;13.27;;;20.80;99.90;;;;;;4986374;28;20030;-75
2022/07/25 03:35:59;;;;;;;15.48;12.10;;;20.80;99.90;;;;;;4969536;28;20033;-75
2022/07/25 03:38:25;;;;;;;20.77;13.33;;;20.80;99.90;;;;;;4986670;28;20019;-75
2022/07/25 03:40:51;;;;;;;15.50;11.73;;;20.80;99.90;;;;;;4985396;28;20304;-75
2022/07/25 03:43:16;;;;;;;14.97;12.27;;;20.70;99.90;;;;;;4985537;28;20176;-75
2022/07/25 03:45:42;;;;;;;13.20;11.40;;;20.80;99.90;;;;;;4985019;28;20023;-75
2022/07/25 03:48:08;;;;;;;14.67;12.27;;;20.70;99.90;;;;;;4986446;28;20018;-75
2022/07/25 03:50:34;;;;;;;14.63;12.03;;;20.80;99.90;;;;;;4986090;28;20022;-75
2022/07/25 03:52:59;;;;;;;13.97;11.77;;;20.70;99.90;;;;;;4986157;28;20266;-75
2022/07/25 03:55:25;;;;;;;14.53;11.50;;;20.70;99.90;;;;;;4986264;28;20027;-75
2022/07/25 03:57:51;;;;;;;13.03;11.60;;;20.70;99.90;;;;;;4986081;28;20019;-75
2022/07/25 04:00:17;;;;;;;14.73;11.43;;;20.70;99.90;;;;;;4986190;28;20023;-74
2022/07/25 04:02:42;;;;;;;14.60;10.87;;;20.70;99.90;;;;;;4985929;28;20036;-75
2022/07/25 04:05:08;;;;;;;14.87;11.33;;;20.70;99.90;;;;;;4984948;28;20023;-75
2022/07/25 04:07:35;;;;;;;13.93;11.68;;;20.70;99.90;;;;;;4984981;28;20388;-75
2022/07/25 04:10:01;;;;;;;14.13;10.45;;;20.80;99.90;;;;;;4986054;28;20341;-75
2022/07/25 04:12:27;;;;;;;13.95;10.27;;;20.70;99.90;;;;;;4983461;28;20035;-75
2022/07/25 04:14:53;;;;;;;14.60;11.38;;;20.80;99.90;;;;;;4985170;28;20243;-75
2022/07/25 04:17:18;;;;;;;13.83;10.87;;;20.70;99.90;;;;;;4985947;28;20034;-75
2022/07/25 04:19:44;;;;;;;12.77;11.13;;;20.70;99.90;;;;;;4984778;28;20030;-75
2022/07/25 04:22:10;;;;;;;13.87;11.03;;;20.70;99.90;;;;;;4985894;28;20027;-75
2022/07/25 04:24:36;;;;;;;18.23;11.37;;;20.70;99.90;;;;;;4985628;28;20282;-75
2022/07/25 04:27:02;;;;;;;15.63;11.02;;;20.70;99.90;;;;;;4968494;28;20030;-74
2022/07/25 04:29:28;;;;;;;13.53;10.60;;;20.70;99.90;;;;;;4986048;28;20035;-75
2022/07/25 04:31:53;;;;;;;11.93;9.95;;;20.70;99.90;;;;;;4984592;28;20337;-75
2022/07/25 04:34:19;;;;;;;12.57;10.20;;;20.70;99.90;;;;;;4979798;28;20051;-75
2022/07/25 04:36:45;;;;;;;13.50;10.80;;;20.70;99.90;;;;;;4985141;28;20018;-71
2022/07/25 04:39:11;;;;;;;15.43;10.83;;;20.70;99.90;;;;;;4983749;28;20373;-71
2022/07/25 04:41:36;;;;;;;14.77;11.73;;;20.70;99.90;;;;;;4983962;28;20030;-71
2022/07/25 04:44:03;;;;;;;13.23;10.30;;;20.80;99.90;;;;;;4985204;28;20045;-71
2022/07/25 04:46:28;;;;;;;12.98;10.77;;;20.80;99.90;;;;;;4983439;28;20029;-71
2022/07/25 04:48:54;;;;;;;14.77;11.97;;;20.80;99.90;;;;;;4984959;28;20050;-71
2022/07/25 04:51:20;;;;;;;14.60;11.33;;;20.90;99.90;;;;;;4983977;28;20027;-72
2022/07/25 04:53:45;;;;;;;15.73;11.63;;;20.90;99.90;;;;;;4984773;28;20026;-72
2022/07/25 04:56:11;;;;;;;13.67;10.57;;;20.90;99.90;;;;;;4985204;28;20022;-72
2022/07/25 04:58:37;;;;;;;12.93;11.13;;;20.90;99.90;;;;;;4976816;28;20141;-69
2022/07/25 05:01:03;;;;;;;13.93;11.43;;;21.00;99.90;;;;;;4981509;28;20035;-69
2022/07/25 05:03:29;;;;;;;14.40;11.13;;;21.00;99.90;;;;;;4982442;28;20097;-69
2022/07/25 05:05:55;;;;;;;16.17;12.70;;;21.10;99.90;;;;;;4984898;28;20027;-69
2022/07/25 05:08:20;;;;;;;15.90;12.13;;;21.00;99.90;;;;;;4984780;28;20082;-69
2022/07/25 05:10:46;;;;;;;15.87;11.73;;;21.10;99.90;;;;;;4982464;28;20022;-69
2022/07/25 05:13:12;;;;;;;14.03;11.50;;;21.10;99.90;;;;;;4984442;28;20061;-69
2022/07/25 05:15:37;;;;;;;14.13;11.10;;;21.20;99.90;;;;;;4978485;28;20038;-69
2022/07/25 05:18:03;;;;;;;15.53;12.20;;;21.20;99.90;;;;;;4983388;28;20031;-69
2022/07/25 05:20:30;;;;;;;14.00;11.17;;;21.30;99.90;;;;;;4979674;28;20030;-70
2022/07/25 05:22:56;;;;;;;;;;;21.30;99.90;;;;;;4977308;28;20023;-70
2022/07/25 05:25:21;;;;;;;13.90;10.80;;;21.40;99.90;;;;;;4984304;28;19909;-70
2022/07/25 05:27:47;;;;;;;11.90;9.73;;;21.40;99.90;;;;;;4983253;28;20026;-70
2022/07/25 05:30:13;;;;;;;16.83;10.90;;;21.50;99.90;;;;;;4984022;28;20026;-70
2022/07/25 05:32:39;;;;;;;16.55;11.10;;;21.50;99.90;;;;;;4982906;28;20034;-70
2022/07/25 05:35:06;;;;;;;12.07;9.90;;;21.50;99.90;;;;;;4983985;28;20027;-70
2022/07/25 05:37:33;;;;;;;11.88;9.90;;;21.60;99.90;;;;;;4983022;28;20049;-70
2022/07/25 05:39:59;;;;;;;12.00;8.93;;;21.70;99.90;;;;;;4983211;28;20085;-70
2022/07/25 05:42:25;;;;;;;12.13;9.80;;;21.70;99.90;;;;;;4984090;28;20349;-70
2022/07/25 05:44:50;;;;;;;12.40;9.63;;;21.80;99.90;;;;;;4982708;28;20023;-70
2022/07/25 05:47:16;;;;;;;11.80;9.03;;;21.90;99.90;;;;;;4984093;28;20027;-70
2022/07/25 05:49:42;;;;;;;12.98;9.32;;;22.00;99.90;;;;;;4984140;28;20065;-70
2022/07/25 05:52:08;;;;;;;12.40;9.40;;;22.10;99.90;;;;;;4983846;28;20026;-69
2022/07/25 05:54:34;;;;;;;10.80;9.10;;;22.10;99.90;;;;;;4983645;28;20022;-70
2022/07/25 05:57:00;;;;;;;11.13;9.13;;;22.30;99.90;;;;;;4984146;28;20284;-69
2022/07/25 05:59:26;;;;;;;11.60;9.05;;;22.40;99.90;;;;;;4983783;28;20069;-69
2022/07/25 06:01:52;;;;;;;15.20;10.05;;;22.50;99.90;;;;;;4982660;28;20054;-69
2022/07/25 06:04:18;;;;;;;11.93;9.00;;;22.50;99.90;;;;;;4983492;28;20041;-70
2022/07/25 06:06:49;;;;;;;14.25;9.80;;;22.60;99.90;;;;;;4983874;28;20026;-70
2022/07/25 06:09:17;;;;;;;12.30;9.23;;;22.70;99.90;;;;;;4988279;28;20026;-70
2022/07/25 06:11:43;;;;;;;11.68;8.73;;;22.80;99.90;;;;;;5002895;28;20029;-70
2022/07/25 06:14:08;;;;;;;12.60;10.03;;;22.80;99.90;;;;;;5002711;28;20026;-70
2022/07/25 06:16:34;;;;;;;17.00;9.87;;;22.90;99.90;;;;;;4984608;28;20027;-70
2022/07/25 06:19:00;;;;;;;14.00;9.63;;;23.00;99.90;;;;;;4983579;28;20019;-70
2022/07/25 06:21:25;;;;;;;13.23;10.13;;;23.10;99.90;;;;;;4982629;28;20039;-71
2022/07/25 06:23:51;;;;;;;13.37;9.53;;;23.10;99.90;;;;;;4982146;28;20026;-71
2022/07/25 06:26:17;;;;;;;14.17;9.23;;;23.30;99.90;;;;;;4983604;28;20218;-71
2022/07/25 06:28:43;;;;;;;11.87;9.60;;;23.30;99.90;;;;;;4983396;28;20330;-71
2022/07/25 06:31:08;;;;;;;11.50;10.17;;;23.40;99.90;;;;;;4983065;28;20026;-71
2022/07/25 06:33:34;;;;;;;14.47;9.57;;;23.50;99.90;;;;;;4982993;28;20226;-71
2022/07/25 06:36:00;;;;;;;15.17;11.47;;;23.60;99.50;;;;;;4981937;28;20226;-71
2022/07/25 06:38:26;;;;;;;14.77;10.47;;;23.70;99.00;;;;;;4982393;28;20217;-71
2022/07/25 06:40:51;;;;;;;12.43;9.77;;;23.80;98.50;;;;;;4983274;28;20042;-71
2022/07/25 06:43:17;;;;;;;15.60;9.50;;;23.90;96.80;;;;;;4982901;28;20089;-71
2022/07/25 06:45:46;;;;;;;11.80;9.03;;;24.00;96.10;;;;;;4982593;28;20035;-71
2022/07/25 06:48:13;;;;;;;11.88;9.25;;;24.10;97.00;;;;;;4982654;28;20033;-71
2022/07/25 06:50:39;;;;;;;11.75;9.13;;;24.20;97.00;;;;;;4983141;28;20288;-71
2022/07/25 06:53:05;;;;;;;10.27;9.07;;;24.20;95.50;;;;;;4983030;28;20038;-71
2022/07/25 06:55:30;;;;;;;12.17;9.17;;;24.30;94.60;;;;;;4983275;28;20031;-71
2022/07/25 06:57:56;;;;;;;12.80;9.52;;;24.40;94.70;;;;;;4983395;28;20026;-71
2022/07/25 07:00:22;;;;;;;11.80;8.50;;;24.50;94.20;;;;;;4982891;28;20033;-71
2022/07/25 07:02:55;;;;;;;13.63;9.13;;;24.60;93.40;;;;;;4982792;28;20270;-70
2022/07/25 07:05:22;;;;;;;13.00;9.60;;;24.60;93.60;;;;;;4983358;28;20026;-71
2022/07/25 07:07:48;;;;;;;11.95;9.18;;;24.70;93.30;;;;;;4982041;28;20031;-70
2022/07/25 07:10:15;;;;;;;12.82;8.40;;;24.80;92.90;;;;;;4982064;28;20029;-71
2022/07/25 07:12:41;;;;;;;10.93;8.27;;;25.00;92.20;;;;;;4981762;28;20385;-70
2022/07/25 07:15:07;;;;;;;11.20;7.97;;;25.10;91.90;;;;;;4995506;28;20027;-71
2022/07/25 07:17:33;;;;;;;11.95;8.75;;;25.10;90.90;;;;;;4982474;28;20030;-70
2022/07/25 07:19:58;;;;;;;9.20;7.83;;;25.30;90.50;;;;;;4983127;28;20083;-70
2022/07/25 07:22:24;;;;;;;9.27;8.20;;;25.30;90.20;;;;;;4983443;28;20262;-69
2022/07/25 07:24:50;;;;;;;13.35;8.30;;;25.40;90.40;;;;;;4983043;28;20085;-70
2022/07/25 07:27:16;;;;;;;9.95;8.27;;;25.50;88.70;;;;;;4983163;28;20039;-69
2022/07/25 07:29:41;;;;;;;11.33;8.93;;;25.60;90.10;;;;;;4983083;28;20046;-69
2022/07/25 07:32:07;;;;;;;12.23;8.38;;;25.70;88.30;;;;;;4982762;28;20362;-70
2022/07/25 07:34:33;;;;;;;11.23;8.43;;;25.70;88.90;;;;;;4982642;28;20023;-71
2022/07/25 07:36:59;;;;;;;9.97;7.83;;;25.80;87.80;;;;;;4982778;28;20023;-69
2022/07/25 07:39:24;;;;;;;12.80;8.10;;;25.80;86.90;;;;;;4981971;28;20266;-70
2022/07/25 07:41:50;;;;;;;12.27;8.63;;;25.90;87.50;;;;;;4982766;28;20281;-69
2022/07/25 07:44:16;;;;;;;16.95;8.25;;;26.00;83.10;;;;;;4982749;28;20037;-69
2022/07/25 07:46:42;;;;;;;11.85;8.43;;;26.10;83.70;;;;;;4990412;28;20054;-70
2022/07/25 07:49:08;;;;;;;10.80;8.10;;;26.20;83.90;;;;;;5005209;28;20348;-77
2022/07/25 07:51:34;;;;;;;10.57;8.02;;;26.30;80.40;;;;;;4955574;28;20263;-77
2022/07/25 07:56:44;;;;;;;11.52;7.97;;;26.50;78.60;;;;;;4952698;29;20062;-77
2022/07/25 07:59:11;;;;;;;10.65;7.85;;;26.70;78.20;;;;;;4950156;29;20023;-79
2022/07/25 08:01:37;;;;;;;11.60;7.30;;;26.80;76.60;;;;;;4965982;28;20051;-77
2022/07/25 08:04:03;;;;;;;10.57;7.88;;;26.80;74.80;;;;;;4967657;28;20086;-78
2022/07/25 08:06:28;;;;;;;7.57;6.78;;;26.90;75.10;;;;;;4982067;28;20023;-77
2022/07/25 08:08:54;;;;;;;8.57;7.53;;;27.00;74.30;;;;;;4966838;28;20094;-77
2022/07/25 08:11:20;;;;;;;7.85;7.03;;;27.10;73.80;;;;;;4966643;28;20102;-76
2022/07/25 08:13:46;;;;;;;7.82;7.03;;;27.20;73.80;;;;;;4966413;28;20050;-77
2022/07/25 08:16:12;;;;;;;9.90;7.45;;;27.30;72.20;;;;;;4990049;28;20042;-77
2022/07/25 08:18:38;;;;;;;8.48;7.07;;;27.40;71.80;;;;;;4972016;28;20019;-77
2022/07/25 08:21:05;;;;;;;11.18;7.63;;;27.50;70.80;;;;;;5004289;28;20053;-77
2022/07/25 08:23:37;;;;;;;8.55;7.60;;;27.60;70.00;;;;;;4987686;28;20464;-77
2022/07/25 08:26:02;;;;;;;9.07;7.40;;;27.60;70.20;;;;;;5004275;28;20026;-77
2022/07/25 08:28:28;;;;;;;9.65;7.63;;;27.60;69.20;;;;;;5004111;28;20038;-77
2022/07/25 08:30:54;;;;;;;10.07;7.55;;;27.70;69.10;;;;;;5003888;28;20049;-77
2022/07/25 08:33:20;;;;;;;9.13;6.70;;;27.80;69.30;;;;;;5003563;28;20217;-77
2022/07/25 08:35:47;;;;;;;8.05;6.70;;;27.90;68.70;;;;;;5004845;28;20026;-77
2022/07/25 08:38:13;;;;;;;7.57;6.47;;;28.10;66.10;;;;;;4987923;28;20037;-76
2022/07/25 08:40:39;;;;;;;9.82;6.78;;;28.10;67.10;;;;;;5003360;28;20018;-77
2022/07/25 08:43:05;;;;;;;8.88;7.38;;;28.20;66.90;;;;;;5003423;28;20026;-77
2022/07/25 08:45:30;;;;;;;10.48;7.65;;;28.40;66.60;;;;;;5000937;28;20360;-77
2022/07/25 08:47:56;;;;;;;9.30;7.18;;;28.40;64.80;;;;;;4984034;28;20034;-77
2022/07/25 08:50:25;;;;;;;9.23;7.60;;;28.50;63.10;;;;;;4984075;28;20026;-77
2022/07/25 08:52:51;;;;;;;9.02;7.82;;;28.50;63.60;;;;;;4984050;28;20035;-77
2022/07/25 08:55:22;;;;;;;11.30;7.47;;;28.60;63.40;;;;;;4984396;28;20022;-76
2022/07/25 08:57:50;;;;;;;10.60;8.13;;;28.70;62.10;;;;;;4983724;28;20043;-76
2022/07/25 09:00:19;;;;;;;7.90;7.05;;;28.80;62.20;;;;;;4983778;28;20069;-77
2022/07/25 09:03:01;;;;;;;10.18;8.05;;;28.90;61.50;;;;;;4983490;28;20222;-77
2022/07/25 09:05:29;;;;;;;7.85;6.88;;;29.00;61.60;;;;;;4984055;28;20090;-77
2022/07/25 09:07:55;;;;;;;10.85;7.22;;;29.00;61.10;;;;;;4985056;28;20027;-77
2022/07/25 09:10:26;;;;;;;8.90;7.35;;;29.10;59.30;;;;;;4983896;28;20030;-77
2022/07/25 09:13:03;;;;;;;11.75;7.95;;;29.10;59.60;;;;;;4983575;28;20027;-77
2022/07/25 09:15:40;;;;;;;7.90;7.10;;;29.20;59.70;;;;;;4983680;28;20030;-77
2022/07/25 09:18:11;;;;;;;8.07;6.38;;;29.30;59.10;;;;;;4983435;28;20441;-77
2022/07/25 09:20:47;;;;;;;7.88;7.00;;;29.40;58.80;;;;;;4983570;28;20030;-77
2022/07/25 09:23:33;;;;;;;9.87;7.37;;;29.40;59.40;;;;;;4968715;28;20038;-77
2022/07/25 09:26:02;;;;;;;12.75;6.80;;;29.50;59.50;;;;;;5003969;28;20450;-77
2022/07/25 09:28:28;;;;;;;10.52;7.38;;;29.60;59.40;;;;;;5002983;28;20041;-77
2022/07/25 09:30:59;;;;;;;10.07;8.27;;;29.70;59.10;;;;;;5002908;28;20021;-77
2022/07/25 09:33:26;;;;;;;8.88;7.50;;;29.70;59.20;;;;;;4986261;28;20049;-77
2022/07/25 09:35:52;;;;;;;11.40;7.60;;;29.80;59.50;;;;;;4986739;28;20344;-77
2022/07/25 09:38:19;;;;;;;8.70;7.45;;;29.80;59.50;;;;;;4986455;28;20013;-77
2022/07/25 09:40:58;;;;;;;;;;;29.90;59.80;;;;;;5003055;28;20026;-77
2022/07/25 09:43:41;;;;;;;10.73;7.95;;;29.90;59.40;;;;;;5002303;28;20200;-77
2022/07/25 09:46:07;;;;;;;9.35;8.25;;;30.00;59.10;;;;;;4979080;28;20033;-77
2022/07/25 09:48:34;;;;;;;8.48;7.57;;;30.00;59.30;;;;;;4983122;28;20019;-77
2022/07/25 09:51:00;;;;;;;8.77;7.88;;;30.10;58.60;;;;;;4983866;28;20027;-77
2022/07/25 09:53:26;;;;;;;10.57;7.95;;;30.00;58.80;;;;;;4983188;28;20098;-77
2022/07/25 09:55:53;;;;;;;9.20;7.82;;;30.10;58.50;;;;;;4986570;28;20054;-77
2022/07/25 09:58:19;;;;;;;9.40;8.15;;;30.10;58.70;;;;;;5002743;28;20014;-77
2022/07/25 10:00:45;;;;;;;9.25;7.85;;;30.10;58.80;;;;;;4986168;28;20033;-76
2022/07/25 10:03:52;;;;;;;7.72;7.03;;;30.10;58.10;;;;;;5002282;28;20026;-78
2022/07/25 10:06:33;;;;;;;8.93;7.40;;;30.20;58.40;;;;;;5003456;28;20025;-77
2022/07/25 10:08:59;;;;;;;8.88;7.97;;;30.30;57.90;;;;;;4986564;28;20022;-76
2022/07/25 10:11:26;;;;;;;9.07;7.93;;;30.40;57.90;;;;;;4985948;28;20052;-77
2022/07/25 10:13:53;;;;;;;10.32;8.93;;;30.50;57.90;;;;;;4967704;28;20342;-76
2022/07/25 10:16:23;;;;;;;8.57;7.72;;;30.60;57.30;;;;;;4976769;28;20019;-77
2022/07/25 10:18:57;;;;;;;9.40;8.45;;;30.70;57.90;;;;;;4964500;28;20025;-77
2022/07/25 10:21:24;;;;;;;9.15;8.25;;;30.80;57.70;;;;;;4982102;28;20025;-77
2022/07/25 10:24:16;;;;;;;11.02;8.13;;;30.80;57.30;;;;;;4982598;28;20029;-77
2022/07/25 10:26:51;;;;;;;12.63;9.02;;;30.80;57.70;;;;;;4981015;28;20034;-76
2022/07/25 10:29:17;;;;;;;9.85;7.82;;;30.90;56.70;;;;;;4966745;28;20027;-76
2022/07/25 10:31:44;;;;;;;9.88;8.52;;;30.90;57.20;;;;;;4983814;28;20131;-76
2022/07/25 10:34:12;;;;;;;9.45;8.32;;;31.00;56.60;;;;;;4982635;28;20026;-79
2022/07/25 10:36:47;;;;;;;9.85;8.40;;;31.00;56.50;;;;;;4983510;28;20026;-78
2022/07/25 10:39:17;;;;;;;8.52;7.63;;;31.10;56.80;;;;;;4986305;28;20018;-78
2022/07/25 10:41:59;;;;;;;9.38;8.38;;;31.10;56.90;;;;;;4985017;28;20198;-77
2022/07/25 10:44:29;;;;;;;9.93;8.02;;;31.20;57.70;;;;;;4985165;28;20230;-77
2022/07/25 10:47:14;;;;;;;9.80;8.75;;;31.20;57.60;;;;;;4983112;28;20030;-77
2022/07/25 10:49:41;;;;;;;10.57;7.93;;;31.20;56.50;;;;;;4982431;28;20023;-77
2022/07/25 10:52:17;;;;;;;10.35;8.02;;;31.30;57.20;;;;;;4982330;28;20041;-77
2022/07/25 10:54:59;;;;;;;9.77;7.80;;;31.50;57.30;;;;;;4982575;28;20030;-77
2022/07/25 10:57:25;;;;;;;10.13;7.70;;;31.70;55.80;;;;;;4982896;28;20022;-77
2022/07/25 10:59:50;;;;;;;10.45;8.02;;;31.80;54.40;;;;;;4982922;28;20095;-77
2022/07/25 11:02:16;;;;;;;10.23;7.35;;;31.80;55.10;;;;;;4982918;28;20027;-77
2022/07/25 11:04:44;;;;;;;8.35;7.53;;;31.90;53.60;;;;;;4982710;28;20031;-77
2022/07/25 11:07:11;;;;;;;9.43;7.32;;;32.00;53.60;;;;;;4983113;28;20141;-78
2022/07/25 11:09:37;;;;;;;10.55;7.85;;;32.00;53.20;;;;;;4983975;28;20030;-78
2022/07/25 11:12:04;;;;;;;9.77;8.40;;;32.10;54.10;;;;;;4983912;28;20023;-78
2022/07/25 11:14:35;;;;;;;10.95;8.05;;;32.20;54.40;;;;;;4983917;28;20042;-78
2022/07/25 11:17:19;;;;;;;9.05;7.53;;;32.40;53.00;;;;;;4967900;28;20023;-79
2022/07/25 11:20:05;;;;;;;8.38;7.32;;;32.50;52.70;;;;;;4983353;28;20384;-78
2022/07/25 11:22:31;;;;;;;8.35;7.20;;;32.70;52.50;;;;;;4987080;28;20030;-78
2022/07/25 11:24:57;;;;;;;8.05;7.15;;;32.70;52.20;;;;;;4987314;28;20041;-78
2022/07/25 11:27:33;;;;;;;8.27;7.40;;;32.80;52.80;;;;;;4987251;28;20098;-78
2022/07/25 11:30:08;;;;;;;9.77;7.93;;;32.80;51.60;;;;;;4987748;28;20082;-78
2022/07/25 11:32:39;;;;;;;10.60;7.97;;;32.80;51.80;;;;;;4987977;28;20094;-79
2022/07/25 11:35:05;;;;;;;8.68;7.15;;;32.90;52.20;;;;;;4987578;28;20254;-78
2022/07/25 11:37:34;;;;;;;9.60;7.22;;;32.90;52.30;;;;;;4971570;28;20018;-78
2022/07/25 11:40:00;;;;;;;9.73;6.80;;;33.00;52.00;;;;;;4987074;28;20373;-78
2022/07/25 11:42:27;;;;;;;8.23;7.43;;;33.20;51.30;;;;;;4986319;28;20026;-79
2022/07/25 11:44:53;;;;;;;7.78;6.43;;;33.40;52.30;;;;;;4971101;28;20030;-78
2022/07/25 11:47:25;;;;;;;9.40;7.28;;;33.60;51.40;;;;;;4986374;28;20023;-78
2022/07/25 11:49:51;;;;;;;8.23;7.43;;;33.70;50.60;;;;;;4988310;28;20026;-80
2022/07/25 11:52:34;;;;;;;9.48;6.45;;;33.80;50.40;;;;;;4987697;28;20035;-77
2022/07/25 11:55:15;;;;;;;8.82;7.10;;;34.00;51.30;;;;;;4986111;28;20031;-78
2022/07/25 11:57:43;;;;;;;7.78;6.53;;;34.10;49.50;;;;;;4986708;28;20033;-78
2022/07/25 12:00:14;;;;;;;7.38;6.68;;;34.20;49.40;;;;;;4986473;28;20033;-78
2022/07/25 12:02:39;;;;;;;7.93;7.13;;;34.20;49.20;;;;;;4986370;28;20097;-78
2022/07/25 12:05:09;;;;;;;;;;;34.20;49.00;;;;;;4982001;28;20054;-82
2022/07/25 12:07:49;;;;;;;9.50;6.95;;;34.30;49.50;;;;;;4961105;29;19910;-75
2022/07/25 12:10:23;;;;;;;8.00;7.07;;;34.40;50.60;;;;;;4965697;28;20262;-75
2022/07/25 12:12:54;;;;;;;7.20;6.50;;;34.50;49.60;;;;;;4965297;29;20027;-74
2022/07/25 12:15:26;;;;;;;7.82;6.47;;;34.60;47.70;;;;;;4949780;28;20082;-74
2022/07/25 12:17:54;;;;;;;8.30;6.10;;;34.70;47.70;;;;;;4978780;28;20429;-75
2022/07/25 12:20:22;;;;;;;8.75;6.35;;;34.90;47.30;;;;;;4984340;28;20041;-75
2022/07/25 12:22:50;;;;;;;7.05;6.35;;;35.10;49.00;;;;;;4983977;28;20026;-75
2022/07/25 12:25:16;;;;;;;6.50;5.85;;;35.30;46.90;;;;;;4984520;28;20054;-74
2022/07/25 12:27:41;;;;;;;7.55;6.70;;;35.60;46.40;;;;;;4984540;28;20049;-74
2022/07/25 12:30:08;;;;;;;7.10;6.45;;;35.70;45.10;;;;;;4985818;28;20027;-74
2022/07/25 12:32:34;;;;;;;8.02;6.60;;;35.90;45.60;;;;;;4967286;28;20029;-74
2022/07/25 12:35:00;;;;;;;6.35;5.75;;;35.90;43.90;;;;;;4984262;28;20042;-74
2022/07/25 12:37:26;;;;;;;7.50;6.50;;;36.00;45.90;;;;;;4985290;28;20089;-74
2022/07/25 12:39:52;;;;;;;7.18;6.40;;;36.10;44.40;;;;;;4968263;28;20045;-74